createdAt,value
2016-12-03T10:52:18.341Z,1019.07
2016-12-03T10:53:33.443Z,1019.09
2016-12-03T10:54:45.396Z,1019.1
2016-12-03T10:56:01.611Z,1019.09
2016-12-03T10:57:18.304Z,1019.1
2016-12-03T10:58:33.424Z,1019.11
2016-12-03T10:59:50.605Z,1019.06
2016-12-03T11:01:05.356Z,1019.04
2016-12-03T11:02:21.846Z,1019.01
2016-12-03T11:03:35.514Z,1018.94
2016-12-03T11:04:51.249Z,1018.96
2016-12-03T11:06:08.047Z,1018.94
2016-12-03T11:07:21.270Z,1018.99
2016-12-03T11:08:35.706Z,1018.97
2016-12-03T11:09:50.533Z,1018.93
2016-12-03T11:11:06.432Z,1018.95
2016-12-03T11:12:21.274Z,1018.92
2016-12-03T11:13:36.320Z,1018.89
2016-12-03T11:14:53.092Z,1018.83
2016-12-03T11:16:08.214Z,1018.86
2016-12-03T11:17:22.914Z,1018.83
2016-12-03T11:18:38.959Z,1018.82
2016-12-03T11:19:53.858Z,1018.81
2016-12-03T11:21:10.022Z,1018.83
2016-12-03T11:22:26.374Z,1018.84
2016-12-03T11:23:40.736Z,1018.82
2016-12-03T11:24:56.231Z,1018.82
2016-12-03T11:26:11.380Z,1018.82
2016-12-03T11:27:26.077Z,1018.77
2016-12-03T11:28:38.733Z,1018.78
2016-12-03T11:29:53.174Z,1018.77
2016-12-03T11:31:06.749Z,1018.72
2016-12-03T11:32:22.100Z,1018.77
2016-12-03T11:33:37.081Z,1018.77
2016-12-03T11:34:50.708Z,1018.76
2016-12-03T11:36:07.318Z,1018.75
2016-12-03T11:37:22.663Z,1018.79
2016-12-03T11:38:38.107Z,1018.76
2016-12-03T11:39:54.668Z,1018.8
2016-12-03T11:41:08.812Z,1018.8
2016-12-03T11:42:24.487Z,1018.79
2016-12-03T11:43:40.596Z,1018.8
2016-12-03T11:44:53.717Z,1018.83
2016-12-03T11:46:08.489Z,1018.82
2016-12-03T11:47:23.124Z,1018.83
2016-12-03T11:48:36.255Z,1018.83
2016-12-03T11:49:52.075Z,1018.83
2016-12-03T11:51:07.946Z,1018.76
2016-12-03T11:52:24.815Z,1018.75
2016-12-03T11:53:39.570Z,1018.75
2016-12-03T11:54:55.764Z,1018.75
2016-12-03T11:56:10.302Z,1018.81
2016-12-03T11:57:25.033Z,1018.8
2016-12-03T11:58:40.378Z,1018.79
2016-12-03T11:59:57.236Z,1018.79
2016-12-03T12:01:12.477Z,1018.77
2016-12-03T12:02:27.084Z,1018.75
2016-12-03T12:03:40.603Z,1018.82
2016-12-03T12:04:55.901Z,1018.82
2016-12-03T12:06:12.381Z,1018.79
2016-12-03T12:07:27.326Z,1018.8
2016-12-03T12:08:43.936Z,1018.85
2016-12-03T12:10:00.379Z,1018.84
2016-12-03T12:11:14.099Z,1018.81
2016-12-03T12:12:29.348Z,1018.82
2016-12-03T12:13:45.495Z,1018.84
2016-12-03T12:15:01.799Z,1018.81
2016-12-03T12:16:16.174Z,1018.81
2016-12-03T12:17:31.121Z,1018.8
2016-12-03T12:18:46.197Z,1018.79
2016-12-03T12:19:59.187Z,1018.73
2016-12-03T12:21:15.132Z,1018.76
2016-12-03T12:22:29.847Z,1018.79
2016-12-03T12:23:44.232Z,1018.72
2016-12-03T12:24:59.639Z,1018.69
2016-12-03T12:26:14.344Z,1018.73
